createdAt,value
2022-09-11T00:01:53.550Z,101494.38
2022-09-11T00:04:21.226Z,101497.06
2022-09-11T00:06:49.805Z,101489.34
2022-09-11T00:09:18.818Z,101489.34
2022-09-11T00:11:49.862Z,101500.19
2022-09-11T00:14:17.472Z,101491.50
2022-09-11T00:16:47.338Z,101494.28
2022-09-11T00:19:17.441Z,101491.78
2022-09-11T00:21:45.341Z,101488.44
2022-09-11T00:24:13.162Z,101496.59
2022-09-11T00:26:42.407Z,101501.09
2022-09-11T00:29:10.216Z,101498.72
2022-09-11T00:31:38.438Z,101496.34
2022-09-11T00:34:06.844Z,101495.50
2022-09-11T00:36:35.804Z,101502.84
2022-09-11T00:39:03.701Z,101510.13
2022-09-11T00:41:33.468Z,101508.47
2022-09-11T00:44:04.839Z,101514.63
2022-09-11T00:46:41.516Z,101521.97
2022-09-11T00:49:17.770Z,101514.53
2022-09-11T00:51:47.676Z,101520.19
2022-09-11T00:54:16.475Z,101522.44
2022-09-11T00:56:44.421Z,101529.22
2022-09-11T00:59:13.978Z,101526.00
2022-09-11T01:01:41.983Z,101522.94
2022-09-11T01:04:10.382Z,101528.41
2022-09-11T01:06:38.185Z,101518.72
2022-09-11T01:09:05.826Z,101531.78
2022-09-11T01:11:43.169Z,101528.25
2022-09-11T01:14:21.389Z,101529.56
2022-09-11T01:16:54.558Z,101527.00
2022-09-11T01:19:32.567Z,101537.69
2022-09-11T01:22:11.165Z,101525.63
2022-09-11T01:24:50.470Z,101528.59
2022-09-11T01:27:31.951Z,101524.94
2022-09-11T01:30:03.044Z,101532.97
2022-09-11T01:32:36.784Z,101538.41
2022-09-11T01:35:08.466Z,101539.28
2022-09-11T01:37:39.789Z,101532.22
2022-09-11T01:40:11.616Z,101539.53
2022-09-11T01:42:43.283Z,101542.91
2022-09-11T01:45:12.663Z,101540.25
2022-09-11T01:47:42.189Z,101535.16
2022-09-11T01:50:11.414Z,101541.50
2022-09-11T01:52:44.925Z,101546.84
2022-09-11T01:55:14.512Z,101546.84
2022-09-11T01:57:46.403Z,101540.81
2022-09-11T02:00:15.018Z,101544.31
2022-09-11T02:02:45.899Z,101554.16
2022-09-11T02:05:18.087Z,101540.94
2022-09-11T02:07:48.285Z,101551.47
2022-09-11T02:10:18.223Z,101542.06
2022-09-11T02:12:50.664Z,101540.41
2022-09-11T02:15:18.940Z,101552.44
2022-09-11T02:17:52.284Z,101551.91
2022-09-11T02:20:21.517Z,101548.94
2022-09-11T02:22:49.458Z,101554.41
2022-09-11T02:25:17.566Z,101559.91
2022-09-11T02:27:45.234Z,101560.22
2022-09-11T02:30:15.504Z,101537.03
2022-09-11T02:32:45.370Z,101556.97
2022-09-11T02:35:13.283Z,101552.63
2022-09-11T02:37:50.207Z,101557.28
2022-09-11T02:40:32.933Z,101543.66
2022-09-11T02:43:25.821Z,101549.53
2022-09-11T02:46:16.133Z,101543.94
2022-09-11T02:48:49.568Z,101543.94
2022-09-11T02:51:22.902Z,101546.19
2022-09-11T02:53:55.407Z,101563.97
2022-09-11T02:56:30.514Z,101554.44
2022-09-11T02:59:00.889Z,101562.31
2022-09-11T03:01:30.027Z,101561.63
2022-09-11T03:03:57.706Z,101563.84
2022-09-11T03:06:27.349Z,101566.13
2022-09-11T03:08:55.614Z,101565.41
2022-09-11T03:11:23.318Z,101569.06
2022-09-11T03:13:50.903Z,101565.72
2022-09-11T03:16:19.140Z,101576.38
2022-09-11T03:18:48.278Z,101569.63
2022-09-11T03:21:16.957Z,101582.97
2022-09-11T03:23:44.693Z,101586.47
2022-09-11T03:26:12.379Z,101587.59
2022-09-11T03:28:40.463Z,101587.75
2022-09-11T03:31:09.771Z,101593.22
2022-09-11T03:33:37.470Z,101589.72
2022-09-11T03:36:06.959Z,101592.50
2022-09-11T03:38:34.583Z,101591.56
2022-09-11T03:41:03.320Z,101587.31
2022-09-11T03:43:31.434Z,101590.97
2022-09-11T03:46:00.575Z,101592.81
2022-09-11T03:48:29.149Z,101592.81
2022-09-11T03:50:56.805Z,101588.44
2022-09-11T03:53:26.672Z,101595.47
2022-09-11T03:55:54.823Z,101598.28
2022-09-11T03:58:22.504Z,101590.28
2022-09-11T04:00:50.155Z,101592.09
2022-09-11T04:03:18.257Z,101593.09
2022-09-11T04:05:57.649Z,101596.72
2022-09-11T04:08:26.893Z,101608.38
2022-09-11T04:10:58.394Z,101606.00
2022-09-11T04:13:29.736Z,101606.41
2022-09-11T04:16:01.004Z,101611.88
2022-09-11T04:18:28.704Z,101592.78
2022-09-11T04:20:56.328Z,101611.44
2022-09-11T04:23:24.092Z,101616.06
2022-09-11T04:25:53.302Z,101616.22
2022-09-11T04:28:21.421Z,101618.75
2022-09-11T04:30:49.066Z,101612.72
2022-09-11T04:33:16.649Z,101614.97
2022-09-11T04:35:44.626Z,101616.75
2022-09-11T04:38:12.321Z,101619.56
2022-09-11T04:40:39.926Z,101616.75
2022-09-11T04:43:11.348Z,101620.41
2022-09-11T04:45:40.501Z,101629.41
2022-09-11T04:48:08.280Z,101633.06
2022-09-11T04:50:35.933Z,101617.19
2022-09-11T04:53:03.603Z,101636.16
2022-09-11T04:55:31.218Z,101630.97
2022-09-11T04:57:58.838Z,101623.81
2022-09-11T05:00:28.192Z,101630.38
2022-09-11T05:02:55.909Z,101640.06
2022-09-11T05:05:23.539Z,101639.22
2022-09-11T05:07:51.432Z,101632.22
2022-09-11T05:10:20.291Z,101644.56
2022-09-11T05:12:47.883Z,101636.41
2022-09-11T05:15:15.751Z,101637.53
2022-09-11T05:17:44.711Z,101652.41
2022-09-11T05:20:12.428Z,101648.19
2022-09-11T05:22:40.081Z,101654.38
2022-09-11T05:25:08.959Z,101658.72
2022-09-11T05:27:36.593Z,101661.53
2022-09-11T05:30:04.628Z,101665.03
2022-09-11T05:32:32.286Z,101662.38
2022-09-11T05:35:01.284Z,101670.38
2022-09-11T05:37:28.968Z,101673.19
2022-09-11T05:39:56.939Z,101669.81
2022-09-11T05:42:24.722Z,101675.25
2022-09-11T05:44:52.384Z,101681.72
2022-09-11T05:47:19.945Z,101684.06
2022-09-11T05:49:47.528Z,101694.19
2022-09-11T05:52:16.528Z,101697.94
2022-09-11T05:54:44.147Z,101694.44
2022-09-11T05:57:11.753Z,101694.84
2022-09-11T05:59:39.369Z,101695.00
2022-09-11T06:02:07.013Z,101696.09
2022-09-11T06:04:42.371Z,101705.91
2022-09-11T06:07:10.023Z,101705.31
2022-09-11T06:09:39.047Z,101701.66
2022-09-11T06:12:07.065Z,101702.13
2022-09-11T06:14:34.658Z,101705.75
2022-09-11T06:17:02.249Z,101710.41
2022-09-11T06:19:29.915Z,101710.16
2022-09-11T06:21:57.514Z,101714.38
2022-09-11T06:24:25.154Z,101715.06
2022-09-11T06:26:54.093Z,101722.81
2022-09-11T06:29:21.675Z,101720.84
2022-09-11T06:31:51.336Z,101713.69
2022-09-11T06:34:19.948Z,101719.72
2022-09-11T06:36:51.773Z,101711.63
2022-09-11T06:39:22.813Z,101710.50
2022-09-11T06:41:50.553Z,101713.00
2022-09-11T06:44:19.513Z,101708.28
2022-09-11T06:46:47.770Z,101708.81
2022-09-11T06:49:16.189Z,101716.69
2022-09-11T06:51:43.851Z,101721.16
2022-09-11T06:54:11.719Z,101711.88
2022-09-11T06:56:39.491Z,101726.66
2022-09-11T06:59:07.203Z,101724.97
2022-09-11T07:01:36.338Z,101727.78
2022-09-11T07:04:04.149Z,101732.38
2022-09-11T07:06:32.058Z,101719.19
2022-09-11T07:09:02.479Z,101719.88
2022-09-11T07:11:32.255Z,101726.78
2022-09-11T07:13:59.999Z,101722.28
2022-09-11T07:16:27.674Z,101717.22
2022-09-11T07:18:58.156Z,101733.22
2022-09-11T07:21:28.069Z,101737.84
2022-09-11T07:23:57.498Z,101732.38
2022-09-11T07:26:27.952Z,101734.06
2022-09-11T07:28:57.558Z,101735.63
2022-09-11T07:31:29.081Z,101724.38
2022-09-11T07:33:58.298Z,101723.69
2022-09-11T07:36:27.586Z,101731.59
2022-09-11T07:38:55.966Z,101729.63
2022-09-11T07:41:24.913Z,101729.06
2022-09-11T07:43:53.760Z,101729.91
2022-09-11T07:46:21.426Z,101734.13
2022-09-11T07:48:49.176Z,101730.47
2022-09-11T07:51:19.755Z,101737.47
2022-09-11T07:53:48.850Z,101728.78
2022-09-11T07:56:18.338Z,101741.28
2022-09-11T07:58:46.356Z,101739.47
2022-09-11T08:01:15.767Z,101734.13
2022-09-11T08:03:44.276Z,101740.31
2022-09-11T08:06:14.785Z,101737.25
2022-09-11T08:08:45.517Z,101738.91
2022-09-11T08:11:14.730Z,101740.59
2022-09-11T08:13:42.881Z,101753.53
2022-09-11T08:16:10.783Z,101749.03
2022-09-11T08:18:38.413Z,101759.28
2022-09-11T08:21:12.569Z,101757.19
2022-09-11T08:23:41.901Z,101753.69
2022-09-11T08:26:13.387Z,101760.41
2022-09-11T08:28:42.900Z,101765.34
2022-09-11T08:31:11.100Z,101762.97
2022-09-11T08:33:39.513Z,101765.97
2022-09-11T08:36:09.668Z,101762.44
2022-09-11T08:38:37.609Z,101754.81
2022-09-11T08:41:13.522Z,101777.19
2022-09-11T08:43:47.033Z,101774.94
2022-09-11T08:46:14.769Z,101777.19
2022-09-11T08:48:49.108Z,101783.09
2022-09-11T08:51:18.657Z,101774.78
2022-09-11T08:53:46.454Z,101789.56
2022-09-11T08:56:18.962Z,101781.25
2022-09-11T08:58:56.131Z,101786.03
2022-09-11T09:01:27.584Z,101786.75
2022-09-11T09:04:10.560Z,101787.84
2022-09-11T09:06:50.075Z,101792.09
2022-09-11T09:09:25.723Z,101793.47
2022-09-11T09:11:57.515Z,101783.78
2022-09-11T09:14:35.267Z,101797.13
2022-09-11T09:17:05.688Z,101794.19
2022-09-11T09:19:36.067Z,101783.38
2022-09-11T09:22:09.043Z,101796.13
2022-09-11T09:24:42.690Z,101787.13
2022-09-11T09:27:21.437Z,101791.22
2022-09-11T09:29:52.270Z,101788.13
2022-09-11T09:32:25.130Z,101794.69
2022-09-11T09:34:53.932Z,101801.88
2022-09-11T09:37:23.450Z,101784.69
2022-09-11T09:39:52.266Z,101790.47
2022-09-11T09:42:39.280Z,101786.59
2022-09-11T09:45:23.505Z,101789.94
2022-09-11T09:47:51.261Z,101789.88
2022-09-11T09:50:21.674Z,101785.47
2022-09-11T09:52:50.434Z,101787.00
2022-09-11T09:55:20.467Z,101786.91
2022-09-11T09:57:50.332Z,101799.63
2022-09-11T10:00:20.063Z,101795.19
2022-09-11T10:02:53.642Z,101790.50
2022-09-11T10:05:26.461Z,101794.09
2022-09-11T10:07:56.768Z,101783.59
2022-09-11T10:10:31.204Z,101796.84
2022-09-11T10:13:18.009Z,101793.72
2022-09-11T10:15:49.765Z,101792.78
2022-09-11T10:18:25.474Z,101780.28
2022-09-11T10:20:54.701Z,101791.31
2022-09-11T10:23:24.549Z,101788.63
2022-09-11T10:25:52.366Z,101788.69
2022-09-11T10:28:26.638Z,101797.00
2022-09-11T10:30:59.354Z,101789.34
2022-09-11T10:33:29.752Z,101793.81
2022-09-11T10:35:58.708Z,101795.56
2022-09-11T10:38:31.439Z,101796.47
2022-09-11T10:41:04.390Z,101789.91
2022-09-11T10:43:39.455Z,101781.94
2022-09-11T10:46:23.178Z,101772.81
2022-09-11T10:48:56.150Z,101775.22
2022-09-11T10:51:25.139Z,101783.31
2022-09-11T10:54:09.973Z,101773.09
2022-09-11T10:56:50.605Z,101779.19
2022-09-11T10:59:23.371Z,101778.56
2022-09-11T11:01:51.355Z,101778.88
2022-09-11T11:04:19.085Z,101783.97
2022-09-11T11:06:56.198Z,101785.19
2022-09-11T11:09:34.649Z,101784.50
2022-09-11T11:12:17.242Z,101780.50
2022-09-11T11:14:58.669Z,101770.78
2022-09-11T11:17:32.514Z,101782.34
2022-09-11T11:20:09.979Z,101777.59
2022-09-11T11:22:56.125Z,101770.88
2022-09-11T11:25:28.740Z,101773.41
2022-09-11T11:28:11.701Z,101778.09
2022-09-11T11:30:45.828Z,101780.06
2022-09-11T11:33:57.991Z,101772.34
2022-09-11T11:36:28.846Z,101772.66
2022-09-11T11:39:02.133Z,101783.69
2022-09-11T11:41:31.755Z,101775.97
2022-09-11T11:44:03.420Z,101786.34
2022-09-11T11:46:33.496Z,101788.41
2022-09-11T11:49:05.758Z,101779.75
2022-09-11T11:51:36.214Z,101780.50
2022-09-11T11:54:06.674Z,101774.38
2022-09-11T11:56:40.789Z,101772.47
2022-09-11T11:59:13.541Z,101779.84
2022-09-11T12:01:44.037Z,101773.66
2022-09-11T12:04:24.198Z,101774.66
2022-09-11T12:06:51.942Z,101772.28
2022-09-11T12:09:19.967Z,101778.66
2022-09-11T12:11:49.679Z,101770.75
2022-09-11T12:14:27.512Z,101767.94
2022-09-11T12:16:56.535Z,101769.34
2022-09-11T12:19:26.244Z,101775.47
2022-09-11T12:22:14.678Z,101769.81
2022-09-11T12:24:58.639Z,101771.53
2022-09-11T12:27:53.152Z,101771.91
2022-09-11T12:30:28.583Z,101768.59
2022-09-11T12:32:57.226Z,101767.28
2022-09-11T12:35:30.743Z,101757.72
2022-09-11T12:38:02.670Z,101763.94
2022-09-11T12:40:35.818Z,101761.69
2022-09-11T12:43:31.096Z,101748.31
2022-09-11T12:48:38.657Z,101746.53
2022-09-11T12:51:07.329Z,101748.91
2022-09-11T12:53:37.627Z,101753.25
2022-09-11T12:56:07.117Z,101751.94
2022-09-11T12:58:37.484Z,101736.16
2022-09-11T13:01:15.740Z,101738.34
2022-09-11T13:03:51.571Z,101746.22
2022-09-11T13:06:19.482Z,101742.69
2022-09-11T13:08:50.338Z,101734.13
2022-09-11T13:11:42.152Z,101742.38
2022-09-11T13:14:45.684Z,101736.81
2022-09-11T13:17:16.344Z,101739.03
2022-09-11T13:19:45.389Z,101731.31
2022-09-11T13:22:22.542Z,101734.50
2022-09-11T13:24:50.459Z,101729.78
2022-09-11T13:27:23.897Z,101717.50
2022-09-11T13:29:52.050Z,101721.22
2022-09-11T13:32:20.041Z,101722.88
2022-09-11T13:34:50.991Z,101710.66
2022-09-11T13:37:31.122Z,101710.66
2022-09-11T13:39:59.648Z,101710.97
2022-09-11T13:42:28.380Z,101710.13
2022-09-11T13:44:57.039Z,101713.84
2022-09-11T13:47:25.960Z,101711.66
2022-09-11T13:49:57.958Z,101696.19
2022-09-11T13:52:27.538Z,101701.56
2022-09-11T13:54:56.283Z,101704.56
2022-09-11T13:57:24.911Z,101706.75
2022-09-11T13:59:54.214Z,101694.81
2022-09-11T14:02:32.138Z,101695.16
2022-09-11T14:05:13.794Z,101688.06
2022-09-11T14:07:56.498Z,101677.56
2022-09-11T14:10:32.908Z,101677.53
2022-09-11T14:13:14.095Z,101680.75
2022-09-11T14:15:43.851Z,101678.84
2022-09-11T14:18:17.501Z,101672.47
2022-09-11T14:20:47.151Z,101680.59
2022-09-11T14:23:20.262Z,101673.56
2022-09-11T14:26:07.593Z,101677.97
2022-09-11T14:28:37.346Z,101674.28
2022-09-11T14:31:09.429Z,101675.81
2022-09-11T14:33:37.108Z,101668.75
2022-09-11T14:36:10.770Z,101661.88
2022-09-11T14:38:39.117Z,101658.47
2022-09-11T14:41:08.055Z,101650.81
2022-09-11T14:43:36.510Z,101662.09
2022-09-11T14:46:04.508Z,101643.56
2022-09-11T14:48:34.587Z,101651.97
2022-09-11T14:51:09.898Z,101642.56
2022-09-11T14:53:43.365Z,101648.22
2022-09-11T14:56:11.261Z,101642.50
2022-09-11T14:58:38.986Z,101654.69
2022-09-11T15:01:06.980Z,101652.00
2022-09-11T15:03:34.940Z,101651.19
2022-09-11T15:06:02.645Z,101644.44
2022-09-11T15:08:30.278Z,101643.81
2022-09-11T15:10:59.471Z,101643.19
2022-09-11T15:13:27.236Z,101651.78
2022-09-11T15:15:56.118Z,101645.09
2022-09-11T15:18:23.840Z,101641.75
2022-09-11T15:20:51.452Z,101640.59
2022-09-11T15:23:19.033Z,101648.53
2022-09-11T15:25:46.778Z,101639.25
2022-09-11T15:28:15.916Z,101638.44
2022-09-11T15:30:43.655Z,101642.44
2022-09-11T15:33:11.371Z,101635.88
2022-09-11T15:35:39.012Z,101639.06
2022-09-11T15:40:36.216Z,101642.19
2022-09-11T15:43:03.942Z,101645.94
2022-09-11T15:45:33.085Z,101642.56
2022-09-11T15:48:00.893Z,101651.19
2022-09-11T15:50:30.153Z,101651.03
2022-09-11T15:52:57.806Z,101640.81
2022-09-11T15:55:26.621Z,101650.06
2022-09-11T15:57:54.246Z,101645.03
2022-09-11T16:00:22.008Z,101631.94
2022-09-11T16:02:53.515Z,101627.94
2022-09-11T16:05:23.011Z,101626.94
2022-09-11T16:07:50.661Z,101641.41
2022-09-11T16:10:18.595Z,101634.69
2022-09-11T16:12:47.031Z,101637.56
2022-09-11T16:15:14.726Z,101640.59
2022-09-11T16:17:42.381Z,101635.38
2022-09-11T16:20:12.751Z,101638.75
2022-09-11T16:22:44.621Z,101649.16
2022-09-11T16:25:12.331Z,101643.47
2022-09-11T16:27:40.157Z,101644.66
2022-09-11T16:30:39.313Z,101639.44
2022-09-11T16:32:57.613Z,101637.78
2022-09-11T16:35:27.304Z,101636.94
2022-09-11T16:37:54.936Z,101635.25
2022-09-11T16:40:22.807Z,101634.72
2022-09-11T16:42:50.495Z,101636.41
2022-09-11T16:45:19.600Z,101634.72
2022-09-11T16:47:47.290Z,101640.28
2022-09-11T16:50:14.909Z,101636.94
2022-09-11T16:52:43.961Z,101634.56
2022-09-11T16:55:11.711Z,101640.13
2022-09-11T16:57:39.715Z,101635.75
2022-09-11T17:00:09.154Z,101640.47
2022-09-11T17:02:37.363Z,101634.59
2022-09-11T17:05:05.903Z,101640.78
2022-09-11T17:07:33.528Z,101635.09
2022-09-11T17:10:02.607Z,101636.63
2022-09-11T17:12:30.202Z,101633.28
2022-09-11T17:14:58.029Z,101637.78
2022-09-11T17:17:25.760Z,101629.06
2022-09-11T17:19:54.040Z,101631.91
2022-09-11T17:22:21.788Z,101629.41
2022-09-11T17:24:49.425Z,101623.38
2022-09-11T17:27:18.444Z,101619.34
2022-09-11T17:29:47.247Z,101619.69
2022-09-11T17:32:27.718Z,101619.69
2022-09-11T17:34:56.845Z,101619.00
2022-09-11T17:37:25.847Z,101614.63
2022-09-11T17:39:53.659Z,101609.94
2022-09-11T17:42:23.033Z,101614.63
2022-09-11T17:44:50.946Z,101612.97
2022-09-11T17:47:19.510Z,101622.88
2022-09-11T17:49:47.223Z,101612.97
2022-09-11T17:52:15.536Z,101621.19
2022-09-11T17:54:43.394Z,101608.78
2022-09-11T17:57:11.914Z,101604.56
2022-09-11T17:59:42.750Z,101602.22
2022-09-11T18:02:11.688Z,101602.41
2022-09-11T18:04:39.507Z,101602.25
2022-09-11T18:07:07.367Z,101602.72
2022-09-11T18:09:34.973Z,101608.28
2022-09-11T18:12:04.064Z,101609.63
2022-09-11T18:14:31.876Z,101608.28
2022-09-11T18:17:00.985Z,101608.09
2022-09-11T18:19:29.189Z,101622.72
2022-09-11T18:21:57.342Z,101612.31
2022-09-11T18:24:29.827Z,101625.03
2022-09-11T18:27:00.927Z,101625.38
2022-09-11T18:29:30.387Z,101630.09
2022-09-11T18:31:59.911Z,101632.78
2022-09-11T18:34:31.129Z,101631.09
2022-09-11T18:36:59.921Z,101635.09
2022-09-11T18:39:28.323Z,101640.47
2022-09-11T18:41:56.044Z,101642.47
2022-09-11T18:44:25.297Z,101645.31
2022-09-11T18:46:54.432Z,101647.13
2022-09-11T18:49:22.721Z,101642.94
2022-09-11T18:51:51.860Z,101648.50
2022-09-11T18:54:20.892Z,101644.31
2022-09-11T18:56:49.711Z,101652.66
2022-09-11T18:59:17.561Z,101647.47
2022-09-11T19:01:45.467Z,101648.47
2022-09-11T19:04:14.639Z,101646.09
2022-09-11T19:06:42.594Z,101643.09
2022-09-11T19:09:12.871Z,101643.09
2022-09-11T19:11:41.080Z,101650.47
2022-09-11T19:14:10.476Z,101642.75
2022-09-11T19:16:39.439Z,101644.09
2022-09-11T19:19:08.112Z,101639.03
2022-09-11T19:21:37.891Z,101639.38
2022-09-11T19:24:06.690Z,101638.00
2022-09-11T19:26:37.523Z,101638.34
2022-09-11T19:29:05.236Z,101636.66
2022-09-11T19:31:33.788Z,101642.69
2022-09-11T19:34:02.052Z,101649.72
2022-09-11T19:36:31.111Z,101651.06
2022-09-11T19:39:00.613Z,101659.25
2022-09-11T19:41:31.246Z,101638.94
2022-09-11T19:44:01.525Z,101645.81
2022-09-11T19:46:30.420Z,101637.94
2022-09-11T19:49:00.793Z,101640.59
2022-09-11T19:51:29.917Z,101641.63
2022-09-11T19:54:00.291Z,101640.94
2022-09-11T19:56:28.607Z,101646.59
2022-09-11T19:58:56.376Z,101649.63
2022-09-11T20:01:26.258Z,101643.72
2022-09-11T20:03:55.109Z,101649.25
2022-09-11T20:06:24.840Z,101643.00
2022-09-11T20:09:07.958Z,101647.03
2022-09-11T20:11:41.360Z,101644.50
2022-09-11T20:14:09.670Z,101640.63
2022-09-11T20:16:38.721Z,101654.03
2022-09-11T20:19:06.684Z,101642.47
2022-09-11T20:21:36.023Z,101640.44
2022-09-11T20:24:06.206Z,101643.13
2022-09-11T20:26:34.280Z,101648.94
2022-09-11T20:29:03.633Z,101650.44
2022-09-11T20:31:32.624Z,101655.78
2022-09-11T20:34:02.485Z,101647.22
2022-09-11T20:36:31.143Z,101642.88
2022-09-11T20:39:00.643Z,101644.03
2022-09-11T20:41:30.575Z,101643.50
2022-09-11T20:44:00.536Z,101640.97
2022-09-11T20:46:28.400Z,101644.13
2022-09-11T20:48:56.147Z,101634.41
2022-09-11T20:51:25.266Z,101637.41
2022-09-11T20:53:53.028Z,101640.38
2022-09-11T20:56:22.609Z,101644.22
2022-09-11T20:58:50.575Z,101628.31
2022-09-11T21:01:21.140Z,101634.84
2022-09-11T21:03:50.122Z,101628.78
2022-09-11T21:06:22.061Z,101625.59
2022-09-11T21:08:55.375Z,101629.09
2022-09-11T21:11:23.315Z,101630.09
2022-09-11T21:13:50.969Z,101620.53
2022-09-11T21:16:19.733Z,101620.84
2022-09-11T21:18:49.099Z,101623.03
2022-09-11T21:21:17.068Z,101616.59
2022-09-11T21:23:44.817Z,101625.59
2022-09-11T21:26:16.602Z,101614.38
2022-09-11T21:28:44.422Z,101624.25
2022-09-11T21:31:12.536Z,101627.22
2022-09-11T21:33:40.505Z,101619.19
2022-09-11T21:36:08.534Z,101621.16
2022-09-11T21:38:37.651Z,101615.13
2022-09-11T21:41:06.913Z,101625.16
2022-09-11T21:43:36.158Z,101611.94
2022-09-11T21:46:04.103Z,101619.25
2022-09-11T21:48:35.771Z,101618.75
2022-09-11T21:51:07.954Z,101612.84
2022-09-11T21:53:35.651Z,101614.84
2022-09-11T21:56:03.716Z,101613.31
2022-09-11T21:58:31.356Z,101611.66
2022-09-11T22:01:05.888Z,101607.28
2022-09-11T22:03:33.703Z,101614.31
2022-09-11T22:06:05.487Z,101612.78
2022-09-11T22:08:33.282Z,101619.97
2022-09-11T22:11:02.948Z,101614.94
2022-09-11T22:13:30.832Z,101622.78
2022-09-11T22:16:00.217Z,101616.94
2022-09-11T22:18:29.295Z,101613.69
2022-09-11T22:21:00.375Z,101607.81
2022-09-11T22:23:29.906Z,101610.78
2022-09-11T22:26:01.412Z,101603.75
2022-09-11T22:28:29.528Z,101615.63
2022-09-11T22:30:57.395Z,101611.41
2022-09-11T22:33:25.656Z,101599.34
2022-09-11T22:35:54.744Z,101616.66
2022-09-11T22:38:22.382Z,101606.97
2022-09-11T22:40:53.976Z,101601.09
2022-09-11T22:43:21.958Z,101612.91
2022-09-11T22:45:52.821Z,101605.88
2022-09-11T22:48:20.844Z,101617.56
2022-09-11T22:50:48.722Z,101612.69
2022-09-11T22:53:17.932Z,101609.47
2022-09-11T22:55:46.361Z,101612.31
2022-09-11T22:58:14.457Z,101613.28
2022-09-11T23:00:43.183Z,101607.41
2022-09-11T23:03:10.984Z,101609.53
2022-09-11T23:05:56.435Z,101614.88
2022-09-11T23:08:29.289Z,101608.97
2022-09-11T23:11:00.055Z,101609.28
2022-09-11T23:13:27.740Z,101609.97
2022-09-11T23:15:57.326Z,101610.81
2022-09-11T23:18:25.818Z,101600.56
2022-09-11T23:20:54.215Z,101608.84
2022-09-11T23:23:22.275Z,101606.63
2022-09-11T23:25:51.625Z,101599.84
2022-09-11T23:28:19.634Z,101591.97
2022-09-11T23:30:47.311Z,101589.16
2022-09-11T23:33:14.990Z,101591.84
2022-09-11T23:35:42.582Z,101584.97
2022-09-11T23:38:10.269Z,101584.81
2022-09-11T23:40:37.901Z,101583.28
2022-09-11T23:43:06.920Z,101590.47
2022-09-11T23:45:34.581Z,101585.28
2022-09-11T23:48:02.682Z,101597.91
2022-09-11T23:50:30.422Z,101598.22
2022-09-11T23:52:58.064Z,101580.84
2022-09-11T23:55:25.713Z,101586.31
2022-09-11T23:57:55.363Z,101583.94
